createdAt,value
2022-12-31T00:01:23.974Z,85.00
2022-12-31T00:03:52.198Z,83.00
2022-12-31T00:06:32.326Z,83.58
2022-12-31T00:09:02.718Z,86.63
2022-12-31T00:11:31.838Z,88.05
2022-12-31T00:14:00.129Z,86.58
2022-12-31T00:16:33.810Z,87.29
2022-12-31T00:19:01.559Z,85.93
2022-12-31T00:21:31.373Z,87.25
2022-12-31T00:23:59.077Z,88.69
2022-12-31T00:26:30.413Z,87.33
2022-12-31T00:28:59.623Z,87.80
2022-12-31T00:31:30.289Z,86.18
2022-12-31T00:33:59.002Z,87.71
2022-12-31T00:36:31.936Z,88.59
2022-12-31T00:39:02.321Z,85.01
2022-12-31T00:41:30.377Z,86.31
2022-12-31T00:43:57.987Z,87.01
2022-12-31T00:46:26.225Z,88.35
2022-12-31T00:48:54.135Z,91.50
2022-12-31T00:51:24.328Z,89.33
2022-12-31T00:53:52.166Z,87.70
2022-12-31T00:56:22.031Z,85.88
2022-12-31T00:58:50.549Z,87.93
2022-12-31T01:01:19.868Z,88.22
2022-12-31T01:03:49.521Z,87.24
2022-12-31T01:06:18.028Z,86.04
2022-12-31T01:08:48.767Z,85.51
2022-12-31T01:11:22.473Z,88.16
2022-12-31T01:13:57.204Z,86.65
2022-12-31T01:16:31.461Z,87.13
2022-12-31T01:19:04.995Z,88.11
2022-12-31T01:21:33.858Z,85.86
2022-12-31T01:24:01.897Z,87.00
2022-12-31T01:26:29.995Z,87.20
2022-12-31T01:28:57.851Z,88.27
2022-12-31T01:31:25.955Z,88.31
2022-12-31T01:33:54.025Z,89.48
2022-12-31T01:36:27.373Z,90.15
2022-12-31T01:38:57.583Z,89.58
2022-12-31T01:41:28.568Z,88.32
2022-12-31T01:43:58.718Z,88.09
2022-12-31T01:46:37.341Z,88.11
2022-12-31T01:49:14.086Z,89.65
2022-12-31T01:51:44.522Z,88.61
2022-12-31T01:54:16.028Z,86.65
2022-12-31T01:56:47.948Z,85.85
2022-12-31T01:59:18.737Z,88.04
2022-12-31T02:01:48.464Z,87.18
2022-12-31T02:04:16.698Z,88.85
2022-12-31T02:07:09.130Z,87.02
2022-12-31T02:09:39.937Z,84.69
2022-12-31T02:12:09.043Z,84.71
2022-12-31T02:14:42.093Z,84.84
2022-12-31T02:17:30.224Z,84.76
2022-12-31T02:20:40.238Z,86.65
2022-12-31T02:23:25.930Z,88.07
2022-12-31T02:26:05.126Z,86.22
2022-12-31T02:29:03.781Z,86.40
2022-12-31T02:31:40.453Z,87.40
2022-12-31T02:34:16.729Z,86.90
2022-12-31T02:36:47.560Z,86.47
2022-12-31T02:39:15.835Z,86.35
2022-12-31T02:41:52.483Z,85.41
2022-12-31T02:44:29.233Z,85.94
2022-12-31T02:47:09.064Z,86.08
2022-12-31T02:50:05.986Z,84.59
2022-12-31T02:52:45.472Z,85.11
2022-12-31T02:55:21.944Z,84.79
2022-12-31T02:57:52.538Z,85.07
2022-12-31T03:00:47.339Z,84.12
2022-12-31T03:03:15.019Z,84.95
2022-12-31T03:05:44.840Z,85.45
2022-12-31T03:08:20.345Z,84.63
2022-12-31T03:10:48.297Z,86.13
2022-12-31T03:13:15.896Z,85.61
2022-12-31T03:15:43.668Z,87.21
2022-12-31T03:18:14.829Z,86.77
2022-12-31T03:21:07.699Z,86.89
2022-12-31T03:23:50.290Z,85.89
2022-12-31T03:26:17.903Z,86.52
2022-12-31T03:28:48.681Z,86.54
2022-12-31T03:31:16.449Z,86.94
2022-12-31T03:33:44.183Z,86.95
2022-12-31T03:36:14.350Z,87.49
2022-12-31T03:38:42.558Z,86.06
2022-12-31T03:41:11.598Z,87.40
2022-12-31T03:43:39.518Z,87.75
2022-12-31T03:46:07.120Z,87.12
2022-12-31T03:48:34.851Z,89.19
2022-12-31T03:51:04.662Z,89.23
2022-12-31T03:53:32.270Z,89.12
2022-12-31T03:55:59.838Z,87.71
2022-12-31T03:58:27.780Z,89.69
2022-12-31T04:00:55.523Z,87.16
2022-12-31T04:03:23.542Z,88.30
2022-12-31T04:05:55.549Z,88.27
2022-12-31T04:08:23.991Z,86.83
2022-12-31T04:10:51.621Z,86.21
2022-12-31T04:13:19.376Z,85.83
2022-12-31T04:15:50.586Z,87.60
2022-12-31T04:18:18.128Z,86.53
2022-12-31T04:20:45.724Z,87.28
2022-12-31T04:23:13.670Z,87.51
2022-12-31T04:25:41.177Z,87.48
2022-12-31T04:28:11.791Z,88.09
2022-12-31T04:30:40.419Z,88.07
2022-12-31T04:33:08.032Z,85.82
2022-12-31T04:35:35.553Z,88.08
2022-12-31T04:38:03.645Z,86.56
2022-12-31T04:40:32.013Z,89.28
2022-12-31T04:42:59.597Z,88.84
2022-12-31T04:45:27.507Z,89.38
2022-12-31T04:47:55.084Z,90.01
2022-12-31T04:50:22.718Z,90.26
2022-12-31T04:52:50.634Z,88.42
2022-12-31T04:55:18.228Z,86.49
2022-12-31T04:57:45.992Z,86.84
2022-12-31T05:00:14.182Z,85.56
2022-12-31T05:02:42.001Z,85.57
2022-12-31T05:05:09.801Z,86.68
2022-12-31T05:07:37.607Z,87.55
2022-12-31T05:10:06.127Z,86.25
2022-12-31T05:12:33.738Z,86.65
2022-12-31T05:15:01.588Z,87.84
2022-12-31T05:17:29.895Z,88.76
2022-12-31T05:19:57.890Z,86.83
2022-12-31T05:22:31.915Z,86.30
2022-12-31T05:25:00.741Z,87.66
2022-12-31T05:27:31.243Z,88.69
2022-12-31T05:29:59.826Z,89.93
2022-12-31T05:32:27.493Z,89.02
2022-12-31T05:34:55.435Z,90.46
2022-12-31T05:37:23.083Z,91.90
2022-12-31T05:39:50.611Z,91.88
2022-12-31T05:42:18.543Z,92.55
2022-12-31T05:44:46.066Z,92.79
2022-12-31T05:47:14.633Z,94.82
2022-12-31T05:49:42.864Z,94.70
2022-12-31T05:52:10.969Z,93.15
2022-12-31T05:54:38.597Z,93.72
2022-12-31T05:57:06.761Z,90.74
2022-12-31T05:59:36.218Z,91.06
2022-12-31T06:02:03.860Z,90.62
2022-12-31T06:04:31.908Z,92.90
2022-12-31T06:06:59.545Z,91.80
2022-12-31T06:09:27.256Z,89.85
2022-12-31T06:11:55.167Z,89.29
2022-12-31T06:14:22.755Z,89.61
2022-12-31T06:16:50.380Z,91.86
2022-12-31T06:19:18.291Z,92.46
2022-12-31T06:21:45.870Z,90.90
2022-12-31T06:24:13.492Z,89.84
2022-12-31T06:26:41.429Z,91.42
2022-12-31T06:29:10.482Z,92.50
2022-12-31T06:31:38.395Z,92.19
2022-12-31T06:34:06.371Z,89.86
2022-12-31T06:36:34.041Z,88.65
2022-12-31T06:39:02.085Z,91.51
2022-12-31T06:41:31.537Z,91.74
2022-12-31T06:43:59.177Z,90.89
2022-12-31T06:46:26.785Z,92.21
2022-12-31T06:48:54.890Z,92.30
2022-12-31T06:51:23.084Z,90.70
2022-12-31T06:53:52.036Z,92.75
2022-12-31T06:56:32.989Z,93.28
2022-12-31T06:59:01.418Z,92.10
2022-12-31T07:02:04.657Z,92.52
2022-12-31T07:05:06.639Z,92.53
2022-12-31T07:07:37.661Z,92.73
2022-12-31T07:10:42.617Z,91.15
2022-12-31T07:13:35.775Z,90.56
2022-12-31T07:16:21.006Z,89.30
2022-12-31T07:19:18.878Z,89.89
2022-12-31T07:21:49.690Z,90.26
2022-12-31T07:24:17.943Z,89.12
2022-12-31T07:26:56.990Z,89.91
2022-12-31T07:29:33.073Z,89.01
2022-12-31T07:32:14.797Z,88.30
2022-12-31T07:34:54.495Z,88.80
2022-12-31T07:37:42.412Z,89.87
2022-12-31T07:40:38.210Z,89.70
2022-12-31T07:43:32.993Z,88.42
2022-12-31T07:46:06.947Z,88.45
2022-12-31T07:48:34.923Z,88.25
2022-12-31T07:51:03.294Z,87.63
2022-12-31T07:53:31.542Z,88.25
2022-12-31T07:56:01.885Z,87.99
2022-12-31T07:59:00.805Z,88.27
2022-12-31T08:02:03.258Z,87.98
2022-12-31T08:05:01.154Z,87.65
2022-12-31T08:07:51.758Z,87.13
2022-12-31T08:10:27.282Z,85.89
2022-12-31T08:13:03.926Z,85.88
2022-12-31T08:15:32.294Z,85.67
2022-12-31T08:18:00.035Z,86.74
2022-12-31T08:20:31.363Z,84.38
2022-12-31T08:23:16.745Z,83.63
2022-12-31T08:26:03.025Z,83.57
2022-12-31T08:28:52.243Z,82.80
2022-12-31T08:31:28.377Z,82.47
2022-12-31T08:34:28.680Z,82.64
2022-12-31T08:37:10.711Z,82.20
2022-12-31T08:39:48.558Z,81.37
2022-12-31T08:42:36.956Z,81.32
2022-12-31T08:45:23.476Z,81.60
2022-12-31T08:48:29.282Z,81.09
2022-12-31T08:50:57.854Z,80.47
2022-12-31T08:53:25.748Z,79.60
2022-12-31T08:56:02.943Z,78.79
2022-12-31T08:58:48.723Z,78.74
2022-12-31T09:01:24.487Z,78.80
2022-12-31T09:04:12.219Z,79.11
2022-12-31T09:06:52.048Z,78.11
2022-12-31T09:09:50.557Z,78.02
2022-12-31T09:12:43.493Z,76.75
2022-12-31T09:15:25.240Z,75.49
2022-12-31T09:17:53.393Z,75.43
2022-12-31T09:20:42.973Z,75.38
2022-12-31T09:23:13.242Z,74.92
2022-12-31T09:26:10.278Z,74.34
2022-12-31T09:29:08.732Z,75.27
2022-12-31T09:31:45.255Z,73.17
2022-12-31T09:34:22.643Z,75.66
2022-12-31T09:36:56.078Z,75.14
2022-12-31T09:39:46.299Z,75.77
2022-12-31T09:42:26.764Z,75.34
2022-12-31T09:45:15.481Z,73.60
2022-12-31T09:48:24.348Z,72.48
2022-12-31T09:50:59.647Z,72.90
2022-12-31T09:54:16.179Z,73.43
2022-12-31T09:57:01.917Z,71.74
2022-12-31T09:59:46.321Z,71.12
2022-12-31T10:02:32.717Z,70.54
2022-12-31T10:05:13.006Z,70.26
2022-12-31T10:08:08.878Z,69.97
2022-12-31T10:10:57.965Z,71.92
2022-12-31T10:13:31.309Z,71.18
2022-12-31T10:16:33.199Z,70.19
2022-12-31T10:19:12.685Z,71.87
2022-12-31T10:21:54.719Z,70.58
2022-12-31T10:24:22.286Z,70.16
2022-12-31T10:27:04.695Z,70.76
2022-12-31T10:29:50.041Z,70.54
2022-12-31T10:32:26.248Z,69.44
2022-12-31T10:34:59.752Z,68.70
2022-12-31T10:38:01.318Z,68.93
2022-12-31T10:41:19.609Z,69.34
2022-12-31T10:44:06.822Z,68.66
2022-12-31T10:47:12.110Z,70.00
2022-12-31T10:50:15.247Z,70.25
2022-12-31T10:53:04.058Z,70.41
2022-12-31T10:56:07.901Z,70.25
2022-12-31T10:59:01.627Z,71.38
2022-12-31T11:01:36.771Z,71.54
2022-12-31T11:04:07.159Z,72.88
2022-12-31T11:06:50.218Z,73.32
2022-12-31T11:09:34.730Z,71.89
2022-12-31T11:12:18.719Z,74.01
2022-12-31T11:15:11.290Z,74.00
2022-12-31T11:17:48.605Z,73.22
2022-12-31T11:20:28.274Z,73.83
2022-12-31T11:23:22.250Z,75.17
2022-12-31T11:26:37.236Z,73.89
2022-12-31T11:29:15.478Z,73.88
2022-12-31T11:31:52.536Z,76.11
2022-12-31T11:34:38.416Z,75.56
2022-12-31T11:37:09.052Z,75.44
2022-12-31T11:39:52.047Z,75.11
2022-12-31T11:42:56.622Z,75.21
2022-12-31T11:45:52.108Z,73.57
2022-12-31T11:48:32.678Z,73.32
2022-12-31T11:51:06.631Z,73.76
2022-12-31T11:53:57.460Z,72.95
2022-12-31T11:56:28.414Z,72.98
2022-12-31T11:58:56.562Z,75.36
2022-12-31T12:01:29.847Z,73.86
2022-12-31T12:03:57.878Z,73.51
2022-12-31T12:06:30.093Z,74.04
2022-12-31T12:09:12.557Z,74.14
2022-12-31T12:11:41.093Z,75.18
2022-12-31T12:14:22.965Z,75.15
2022-12-31T12:17:04.261Z,74.89
2022-12-31T12:19:34.957Z,73.60
2022-12-31T12:22:14.315Z,73.28
2022-12-31T12:25:12.111Z,74.78
2022-12-31T12:27:39.737Z,74.40
2022-12-31T12:30:21.928Z,75.49
2022-12-31T12:33:04.779Z,76.48
2022-12-31T12:35:35.193Z,76.55
2022-12-31T12:38:06.451Z,77.04
2022-12-31T12:40:36.497Z,76.89
2022-12-31T12:43:04.166Z,77.54
2022-12-31T12:45:51.889Z,76.55
2022-12-31T12:48:31.177Z,76.93
2022-12-31T12:51:00.374Z,76.54
2022-12-31T12:54:05.203Z,75.97
2022-12-31T12:56:48.448Z,75.20
2022-12-31T12:59:25.904Z,77.45
2022-12-31T13:02:37.655Z,78.15
2022-12-31T13:05:33.084Z,78.44
2022-12-31T13:08:30.494Z,79.92
2022-12-31T13:11:18.324Z,79.82
2022-12-31T13:13:54.886Z,77.14
2022-12-31T13:16:48.350Z,78.34
2022-12-31T13:19:27.695Z,78.44
2022-12-31T13:22:03.416Z,80.22
2022-12-31T13:25:00.980Z,79.44
2022-12-31T13:27:38.461Z,78.26
2022-12-31T13:30:41.419Z,78.04
2022-12-31T13:33:27.900Z,78.22
2022-12-31T13:35:59.003Z,78.29
2022-12-31T13:38:36.247Z,78.57
2022-12-31T13:41:15.062Z,78.24
2022-12-31T13:44:01.309Z,79.21
2022-12-31T13:46:55.439Z,78.29
2022-12-31T13:50:00.567Z,78.87
2022-12-31T13:52:42.460Z,80.87
2022-12-31T13:55:32.642Z,80.29
2022-12-31T13:58:12.576Z,81.07
2022-12-31T14:00:46.488Z,81.41
2022-12-31T14:03:24.761Z,81.97
2022-12-31T14:06:03.378Z,81.58
2022-12-31T14:08:31.296Z,82.79
2022-12-31T14:11:22.941Z,81.53
2022-12-31T14:14:09.152Z,83.94
2022-12-31T14:16:59.639Z,81.85
2022-12-31T14:20:01.690Z,82.35
2022-12-31T14:22:46.540Z,81.53
2022-12-31T14:25:28.702Z,82.74
2022-12-31T14:28:01.834Z,83.81
2022-12-31T14:30:36.686Z,83.54
2022-12-31T14:33:22.673Z,82.86
2022-12-31T14:36:11.864Z,82.09
2022-12-31T14:38:39.956Z,82.34
2022-12-31T14:41:45.647Z,81.32
2022-12-31T14:44:35.057Z,82.17
2022-12-31T14:47:47.581Z,81.62
2022-12-31T14:50:21.226Z,79.73
2022-12-31T14:52:59.608Z,81.41
2022-12-31T14:55:33.781Z,81.78
2022-12-31T14:58:28.334Z,83.05
2022-12-31T15:01:19.076Z,83.74
2022-12-31T15:03:47.312Z,83.33
2022-12-31T15:06:24.052Z,82.62
2022-12-31T15:09:16.524Z,82.50
2022-12-31T15:12:06.790Z,84.02
2022-12-31T15:15:08.244Z,84.76
2022-12-31T15:17:51.132Z,84.43
2022-12-31T15:20:31.124Z,83.66
2022-12-31T15:22:59.221Z,82.69
2022-12-31T15:25:40.437Z,83.71
2022-12-31T15:28:29.506Z,82.10
2022-12-31T15:31:05.883Z,82.75
2022-12-31T15:33:38.557Z,81.88
2022-12-31T15:36:21.590Z,83.00
2022-12-31T15:38:52.398Z,85.42
2022-12-31T15:41:23.382Z,85.31
2022-12-31T15:43:56.458Z,83.25
2022-12-31T15:46:30.511Z,82.93
2022-12-31T15:49:10.271Z,83.56
2022-12-31T15:51:53.377Z,86.65
2022-12-31T15:54:39.885Z,87.64
2022-12-31T15:57:17.169Z,88.18
2022-12-31T15:59:48.039Z,88.41
2022-12-31T16:02:23.605Z,89.56
2022-12-31T16:04:53.148Z,88.51
2022-12-31T16:07:22.257Z,88.78
2022-12-31T16:09:53.545Z,86.42
2022-12-31T16:12:32.783Z,86.66
2022-12-31T16:15:03.777Z,87.36
2022-12-31T16:17:34.502Z,88.38
2022-12-31T16:20:22.052Z,87.56
2022-12-31T16:22:59.161Z,90.41
2022-12-31T16:25:31.072Z,90.43
2022-12-31T16:28:03.004Z,89.73
2022-12-31T16:30:33.829Z,90.15
2022-12-31T16:33:05.511Z,89.91
2022-12-31T16:35:36.420Z,91.44
2022-12-31T16:38:18.667Z,91.74
2022-12-31T16:41:19.651Z,90.39
2022-12-31T16:43:49.421Z,89.21
2022-12-31T16:46:28.880Z,87.51
2022-12-31T16:49:06.718Z,90.38
2022-12-31T16:51:37.564Z,90.19
2022-12-31T16:54:19.424Z,90.42
2022-12-31T16:56:47.321Z,89.24
2022-12-31T16:59:23.384Z,90.65
2022-12-31T17:01:55.954Z,90.32
2022-12-31T17:04:24.649Z,89.34
2022-12-31T17:06:52.450Z,89.29
2022-12-31T17:09:22.418Z,88.19
2022-12-31T17:12:04.039Z,87.84
2022-12-31T17:14:31.579Z,87.63
2022-12-31T17:17:08.307Z,87.52
2022-12-31T17:19:50.704Z,88.01
2022-12-31T17:22:35.812Z,87.45
2022-12-31T17:25:30.481Z,89.79
2022-12-31T17:28:07.115Z,89.96
2022-12-31T17:30:40.153Z,90.72
2022-12-31T17:33:07.973Z,91.50
2022-12-31T17:35:42.112Z,92.50
2022-12-31T17:38:22.101Z,89.97
2022-12-31T17:40:54.492Z,90.31
2022-12-31T17:43:23.670Z,90.41
2022-12-31T17:45:52.258Z,90.74
2022-12-31T17:48:23.090Z,90.03
2022-12-31T17:50:58.281Z,92.30
2022-12-31T17:53:26.113Z,91.51
2022-12-31T17:55:57.327Z,90.62
2022-12-31T17:58:32.026Z,88.53
2022-12-31T18:01:00.594Z,88.29
2022-12-31T18:03:28.617Z,90.54
2022-12-31T18:05:56.188Z,91.52
2022-12-31T18:08:24.270Z,93.74
2022-12-31T18:10:54.074Z,94.17
2022-12-31T18:13:24.780Z,92.67
2022-12-31T18:15:52.975Z,92.63
2022-12-31T18:18:27.261Z,92.80
2022-12-31T18:21:00.177Z,92.53
2022-12-31T18:23:39.118Z,90.38
2022-12-31T18:26:09.585Z,92.75
2022-12-31T18:28:37.257Z,92.07
2022-12-31T18:31:05.188Z,92.12
2022-12-31T18:33:33.126Z,91.60
2022-12-31T18:36:09.505Z,93.16
2022-12-31T18:38:39.331Z,93.23
2022-12-31T18:41:12.063Z,92.01
2022-12-31T18:43:39.883Z,91.90
2022-12-31T18:46:16.229Z,92.35
2022-12-31T18:48:44.433Z,93.92
2022-12-31T18:51:18.556Z,93.16
2022-12-31T18:53:47.053Z,93.33
2022-12-31T18:56:20.358Z,92.90
2022-12-31T18:58:48.410Z,91.29
2022-12-31T19:01:31.759Z,92.34
2022-12-31T19:04:26.990Z,92.80
2022-12-31T19:06:56.584Z,91.61
2022-12-31T19:09:44.519Z,91.89
2022-12-31T19:12:13.784Z,91.67
2022-12-31T19:14:41.972Z,92.35
2022-12-31T19:19:35.994Z,91.24
2022-12-31T19:22:03.947Z,93.04
2022-12-31T19:24:31.877Z,91.14
2022-12-31T19:27:01.354Z,92.94
2022-12-31T19:29:29.259Z,94.55
2022-12-31T19:31:58.257Z,95.63
2022-12-31T19:34:26.036Z,94.71
2022-12-31T19:36:53.855Z,93.88
2022-12-31T19:39:21.714Z,93.67
2022-12-31T19:41:56.586Z,94.81
2022-12-31T19:44:26.641Z,94.93
2022-12-31T19:46:54.182Z,93.90
2022-12-31T19:49:22.011Z,93.80
2022-12-31T19:51:49.878Z,93.10
2022-12-31T19:54:17.610Z,92.84
2022-12-31T19:56:45.140Z,94.28
2022-12-31T19:59:12.971Z,94.16
2022-12-31T20:01:40.622Z,93.20
2022-12-31T20:04:08.715Z,94.57
2022-12-31T20:06:36.260Z,94.86
2022-12-31T20:09:04.115Z,92.98
2022-12-31T20:11:32.024Z,95.06
2022-12-31T20:13:59.688Z,95.03
2022-12-31T20:16:29.701Z,94.96
2022-12-31T20:18:57.847Z,94.60
2022-12-31T20:21:28.132Z,94.04
2022-12-31T20:23:56.223Z,93.96
2022-12-31T20:26:25.074Z,93.43
2022-12-31T20:28:53.415Z,93.67
2022-12-31T20:31:23.976Z,94.65
2022-12-31T20:33:54.128Z,92.76
2022-12-31T20:36:23.019Z,94.75
2022-12-31T20:38:50.667Z,93.28
2022-12-31T20:41:21.373Z,94.44
2022-12-31T20:43:49.840Z,96.06
2022-12-31T20:46:20.305Z,95.35
2022-12-31T20:48:50.214Z,95.26
2022-12-31T20:51:19.051Z,94.37
2022-12-31T20:53:49.976Z,95.03
2022-12-31T20:56:18.591Z,94.14
2022-12-31T20:58:46.559Z,93.27
2022-12-31T21:01:15.128Z,93.44
2022-12-31T21:06:33.588Z,91.21
2022-12-31T21:09:03.121Z,92.58
2022-12-31T21:11:49.548Z,92.09
2022-12-31T21:14:17.542Z,92.17
2022-12-31T21:16:45.415Z,90.49
2022-12-31T21:19:13.117Z,92.36
2022-12-31T21:21:41.010Z,93.39
2022-12-31T21:24:08.923Z,90.37
2022-12-31T21:26:36.596Z,90.92
2022-12-31T21:29:04.389Z,90.59
2022-12-31T21:31:32.584Z,92.81
2022-12-31T21:34:00.211Z,93.04
2022-12-31T21:36:28.239Z,92.32
2022-12-31T21:38:55.854Z,91.70
2022-12-31T21:41:42.401Z,90.53
2022-12-31T21:44:10.520Z,90.19
2022-12-31T21:46:38.239Z,90.82
2022-12-31T21:49:05.864Z,92.24
2022-12-31T21:51:53.662Z,92.13
2022-12-31T21:54:41.260Z,92.93
2022-12-31T21:57:09.433Z,91.75
2022-12-31T22:00:24.078Z,93.84
2022-12-31T22:03:02.315Z,92.79
2022-12-31T22:05:30.121Z,92.26
2022-12-31T22:07:58.186Z,94.14
2022-12-31T22:10:25.882Z,92.49
2022-12-31T22:12:53.503Z,93.77
2022-12-31T22:15:21.476Z,93.21
2022-12-31T22:17:49.332Z,92.12
2022-12-31T22:20:27.188Z,92.27
2022-12-31T22:22:55.701Z,91.84
2022-12-31T22:25:23.347Z,90.58
2022-12-31T22:28:19.341Z,92.10
2022-12-31T22:30:39.478Z,92.78
2022-12-31T22:33:07.101Z,90.27
2022-12-31T22:35:34.677Z,91.16
2022-12-31T22:38:09.896Z,89.33
2022-12-31T22:40:39.493Z,91.92
2022-12-31T22:43:07.397Z,91.71
2022-12-31T22:45:36.386Z,91.51
2022-12-31T22:48:04.290Z,92.09
2022-12-31T22:50:32.290Z,92.15
2022-12-31T22:53:01.326Z,92.48
2022-12-31T22:55:28.940Z,90.85
2022-12-31T22:57:56.863Z,93.90
2022-12-31T23:00:38.713Z,92.99
2022-12-31T23:03:07.943Z,92.57
2022-12-31T23:05:35.587Z,91.00
2022-12-31T23:08:09.441Z,91.70
2022-12-31T23:11:05.907Z,90.64
2022-12-31T23:14:00.639Z,92.45
2022-12-31T23:16:48.435Z,92.64
2022-12-31T23:19:35.037Z,92.41
2022-12-31T23:22:21.426Z,92.09
2022-12-31T23:24:48.993Z,90.66
2022-12-31T23:27:16.859Z,90.17
2022-12-31T23:29:47.399Z,91.03
2022-12-31T23:32:16.606Z,91.20
2022-12-31T23:34:45.798Z,91.74
2022-12-31T23:37:14.513Z,91.14
2022-12-31T23:39:42.732Z,90.53
2022-12-31T23:42:10.744Z,90.20
2022-12-31T23:44:38.536Z,90.96
2022-12-31T23:47:06.249Z,91.07
2022-12-31T23:49:34.200Z,90.51
2022-12-31T23:52:01.865Z,90.78
2022-12-31T23:54:29.486Z,91.44
2022-12-31T23:56:57.389Z,91.26
2022-12-31T23:59:24.931Z,91.52
